sensor_id;sensor_type;location;lat;lon;timestamp;P1;durP1;ratioP1;P2;durP2;ratioP2
2544;SDS011;36212;48.838;9.142;2024-03-02T00:00:56;17.27;;;14.43;;
2544;SDS011;36212;48.838;9.142;2024-03-02T00:03:28;14.68;;;13.15;;
2544;SDS011;36212;48.838;9.142;2024-03-02T00:06:01;14.50;;;13.05;;
2544;SDS011;36212;48.838;9.142;2024-03-02T00:08:34;14.63;;;13.23;;
2544;SDS011;36212;48.838;9.142;2024-03-02T00:11:06;14.70;;;13.20;;
2544;SDS011;36212;48.838;9.142;2024-03-02T00:13:41;12.52;;;11.40;;
2544;SDS011;36212;48.838;9.142;2024-03-02T00:16:15;13.30;;;12.10;;
2544;SDS011;36212;48.838;9.142;2024-03-02T00:18:50;14.25;;;12.90;;
2544;SDS011;36212;48.838;9.142;2024-03-02T00:21:24;13.93;;;12.40;;
2544;SDS011;36212;48.838;9.142;2024-03-02T00:24:00;15.93;;;12.90;;
2544;SDS011;36212;48.838;9.142;2024-03-02T00:26:50;14.93;;;13.43;;
2544;SDS011;36212;48.838;9.142;2024-03-02T00:29:22;14.00;;;12.70;;
2544;SDS011;36212;48.838;9.142;2024-03-02T00:31:57;13.20;;;12.02;;
2544;SDS011;36212;48.838;9.142;2024-03-02T00:34:31;14.77;;;13.30;;
2544;SDS011;36212;48.838;9.142;2024-03-02T00:37:04;14.07;;;12.65;;
2544;SDS011;36212;48.838;9.142;2024-03-02T00:39:38;15.00;;;13.52;;
2544;SDS011;36212;48.838;9.142;2024-03-02T00:42:10;14.75;;;13.25;;
2544;SDS011;36212;48.838;9.142;2024-03-02T00:44:44;15.25;;;13.70;;
2544;SDS011;36212;48.838;9.142;2024-03-02T00:47:18;13.88;;;12.40;;
2544;SDS011;36212;48.838;9.142;2024-03-02T00:49:50;14.25;;;12.85;;
2544;SDS011;36212;48.838;9.142;2024-03-02T00:52:24;14.50;;;13.10;;
2544;SDS011;36212;48.838;9.142;2024-03-02T00:54:57;14.85;;;13.32;;
2544;SDS011;36212;48.838;9.142;2024-03-02T00:57:29;18.48;;;14.23;;
2544;SDS011;36212;48.838;9.142;2024-03-02T01:00:06;15.30;;;13.85;;
2544;SDS011;36212;48.838;9.142;2024-03-02T01:02:45;16.85;;;13.70;;
2544;SDS011;36212;48.838;9.142;2024-03-02T01:05:18;16.33;;;14.82;;
2544;SDS011;36212;48.838;9.142;2024-03-02T01:07:50;16.55;;;14.55;;
2544;SDS011;36212;48.838;9.142;2024-03-02T01:10:23;16.88;;;14.18;;
2544;SDS011;36212;48.838;9.142;2024-03-02T01:12:56;15.68;;;14.13;;
2544;SDS011;36212;48.838;9.142;2024-03-02T01:15:28;14.63;;;13.25;;
2544;SDS011;36212;48.838;9.142;2024-03-02T01:18:00;16.55;;;14.00;;
2544;SDS011;36212;48.838;9.142;2024-03-02T01:20:33;16.55;;;14.75;;
2544;SDS011;36212;48.838;9.142;2024-03-02T01:23:06;15.93;;;14.43;;
2544;SDS011;36212;48.838;9.142;2024-03-02T01:25:39;18.85;;;14.43;;
2544;SDS011;36212;48.838;9.142;2024-03-02T01:28:11;16.92;;;14.90;;
2544;SDS011;36212;48.838;9.142;2024-03-02T01:30:44;17.27;;;15.43;;
2544;SDS011;36212;48.838;9.142;2024-03-02T01:33:38;16.70;;;14.95;;
2544;SDS011;36212;48.838;9.142;2024-03-02T01:36:23;15.68;;;13.98;;
2544;SDS011;36212;48.838;9.142;2024-03-02T01:38:55;16.33;;;14.38;;
2544;SDS011;36212;48.838;9.142;2024-03-02T01:41:28;15.40;;;13.90;;
2544;SDS011;36212;48.838;9.142;2024-03-02T01:44:00;17.20;;;15.30;;
2544;SDS011;36212;48.838;9.142;2024-03-02T01:46:32;15.35;;;13.75;;
2544;SDS011;36212;48.838;9.142;2024-03-02T01:49:06;17.20;;;15.27;;
2544;SDS011;36212;48.838;9.142;2024-03-02T01:51:39;16.35;;;14.57;;
2544;SDS011;36212;48.838;9.142;2024-03-02T01:54:11;18.08;;;15.05;;
2544;SDS011;36212;48.838;9.142;2024-03-02T01:56:44;15.88;;;14.38;;
2544;SDS011;36212;48.838;9.142;2024-03-02T01:59:16;16.73;;;15.02;;
2544;SDS011;36212;48.838;9.142;2024-03-02T02:01:49;18.30;;;14.57;;
2544;SDS011;36212;48.838;9.142;2024-03-02T02:04:22;21.83;;;16.38;;
2544;SDS011;36212;48.838;9.142;2024-03-02T02:06:59;17.02;;;15.43;;
2544;SDS011;36212;48.838;9.142;2024-03-02T02:09:31;17.70;;;15.90;;
2544;SDS011;36212;48.838;9.142;2024-03-02T02:12:04;19.08;;;15.43;;
2544;SDS011;36212;48.838;9.142;2024-03-02T02:14:39;24.08;;;16.13;;
2544;SDS011;36212;48.838;9.142;2024-03-02T02:17:21;15.73;;;14.00;;
2544;SDS011;36212;48.838;9.142;2024-03-02T02:19:53;16.75;;;15.15;;
2544;SDS011;36212;48.838;9.142;2024-03-02T02:22:25;17.25;;;15.43;;
2544;SDS011;36212;48.838;9.142;2024-03-02T02:24:58;17.08;;;15.27;;
2544;SDS011;36212;48.838;9.142;2024-03-02T02:27:30;16.27;;;14.05;;
2544;SDS011;36212;48.838;9.142;2024-03-02T02:30:02;17.30;;;15.18;;
2544;SDS011;36212;48.838;9.142;2024-03-02T02:32:35;15.65;;;14.10;;
2544;SDS011;36212;48.838;9.142;2024-03-02T02:35:08;24.38;;;16.10;;
2544;SDS011;36212;48.838;9.142;2024-03-02T02:37:40;16.92;;;14.98;;
2544;SDS011;36212;48.838;9.142;2024-03-02T02:40:14;19.17;;;15.73;;
2544;SDS011;36212;48.838;9.142;2024-03-02T02:42:46;20.70;;;14.43;;
2544;SDS011;36212;48.838;9.142;2024-03-02T02:45:19;19.05;;;14.95;;
2544;SDS011;36212;48.838;9.142;2024-03-02T02:47:53;18.23;;;15.13;;
2544;SDS011;36212;48.838;9.142;2024-03-02T02:50:25;19.15;;;14.75;;
2544;SDS011;36212;48.838;9.142;2024-03-02T02:52:58;17.00;;;14.98;;
2544;SDS011;36212;48.838;9.142;2024-03-02T02:55:30;17.98;;;16.13;;
2544;SDS011;36212;48.838;9.142;2024-03-02T02:58:02;19.33;;;15.32;;
2544;SDS011;36212;48.838;9.142;2024-03-02T03:00:36;17.23;;;15.52;;
2544;SDS011;36212;48.838;9.142;2024-03-02T03:03:10;17.70;;;15.65;;
2544;SDS011;36212;48.838;9.142;2024-03-02T03:05:42;17.80;;;15.70;;
2544;SDS011;36212;48.838;9.142;2024-03-02T03:08:14;18.42;;;15.80;;
2544;SDS011;36212;48.838;9.142;2024-03-02T03:10:47;17.60;;;15.20;;
2544;SDS011;36212;48.838;9.142;2024-03-02T03:13:20;15.63;;;14.02;;
2544;SDS011;36212;48.838;9.142;2024-03-02T03:15:52;17.55;;;15.30;;
2544;SDS011;36212;48.838;9.142;2024-03-02T03:18:25;20.08;;;16.48;;
2544;SDS011;36212;48.838;9.142;2024-03-02T03:20:57;19.23;;;15.23;;
2544;SDS011;36212;48.838;9.142;2024-03-02T03:23:30;18.85;;;16.48;;
2544;SDS011;36212;48.838;9.142;2024-03-02T03:26:02;15.88;;;13.85;;
2544;SDS011;36212;48.838;9.142;2024-03-02T03:28:36;17.65;;;14.88;;
2544;SDS011;36212;48.838;9.142;2024-03-02T03:31:08;17.02;;;14.75;;
2544;SDS011;36212;48.838;9.142;2024-03-02T03:33:42;18.88;;;15.43;;
2544;SDS011;36212;48.838;9.142;2024-03-02T03:36:14;19.67;;;16.05;;
2544;SDS011;36212;48.838;9.142;2024-03-02T03:38:46;19.80;;;17.35;;
2544;SDS011;36212;48.838;9.142;2024-03-02T03:41:19;20.50;;;16.67;;
2544;SDS011;36212;48.838;9.142;2024-03-02T03:43:52;19.58;;;17.42;;
2544;SDS011;36212;48.838;9.142;2024-03-02T03:46:25;19.98;;;16.40;;
2544;SDS011;36212;48.838;9.142;2024-03-02T03:48:58;19.83;;;16.58;;
2544;SDS011;36212;48.838;9.142;2024-03-02T03:51:30;19.73;;;17.23;;
2544;SDS011;36212;48.838;9.142;2024-03-02T03:54:03;19.73;;;16.35;;
2544;SDS011;36212;48.838;9.142;2024-03-02T03:56:36;18.48;;;15.52;;
2544;SDS011;36212;48.838;9.142;2024-03-02T03:59:09;19.08;;;17.10;;
2544;SDS011;36212;48.838;9.142;2024-03-02T04:01:43;20.55;;;16.35;;
2544;SDS011;36212;48.838;9.142;2024-03-02T04:04:15;16.83;;;15.02;;
2544;SDS011;36212;48.838;9.142;2024-03-02T04:06:48;19.35;;;16.63;;
2544;SDS011;36212;48.838;9.142;2024-03-02T04:09:22;20.52;;;16.63;;
2544;SDS011;36212;48.838;9.142;2024-03-02T04:11:55;19.60;;;15.70;;
2544;SDS011;36212;48.838;9.142;2024-03-02T04:14:28;20.55;;;16.48;;
2544;SDS011;36212;48.838;9.142;2024-03-02T04:17:00;18.27;;;16.27;;
2544;SDS011;36212;48.838;9.142;2024-03-02T04:19:33;18.17;;;16.27;;
2544;SDS011;36212;48.838;9.142;2024-03-02T04:22:06;18.33;;;16.42;;
2544;SDS011;36212;48.838;9.142;2024-03-02T04:24:52;16.58;;;14.90;;
2544;SDS011;36212;48.838;9.142;2024-03-02T04:27:25;20.13;;;16.90;;
2544;SDS011;36212;48.838;9.142;2024-03-02T04:29:57;20.17;;;16.30;;
2544;SDS011;36212;48.838;9.142;2024-03-02T04:32:32;18.55;;;16.55;;
2544;SDS011;36212;48.838;9.142;2024-03-02T04:35:06;21.33;;;18.48;;
2544;SDS011;36212;48.838;9.142;2024-03-02T04:37:42;20.15;;;16.75;;
2544;SDS011;36212;48.838;9.142;2024-03-02T04:40:15;19.13;;;17.13;;
2544;SDS011;36212;48.838;9.142;2024-03-02T04:42:48;17.65;;;15.85;;
2544;SDS011;36212;48.838;9.142;2024-03-02T04:45:20;18.05;;;16.15;;
2544;SDS011;36212;48.838;9.142;2024-03-02T04:47:53;19.45;;;17.20;;
2544;SDS011;36212;48.838;9.142;2024-03-02T04:50:26;24.42;;;18.95;;
2544;SDS011;36212;48.838;9.142;2024-03-02T04:52:58;19.23;;;16.10;;
2544;SDS011;36212;48.838;9.142;2024-03-02T04:55:31;21.42;;;17.27;;
2544;SDS011;36212;48.838;9.142;2024-03-02T04:58:26;20.02;;;16.55;;
2544;SDS011;36212;48.838;9.142;2024-03-02T05:00:58;20.98;;;17.02;;
2544;SDS011;36212;48.838;9.142;2024-03-02T05:03:31;19.88;;;15.35;;
2544;SDS011;36212;48.838;9.142;2024-03-02T05:06:06;20.40;;;17.38;;
2544;SDS011;36212;48.838;9.142;2024-03-02T05:08:40;22.80;;;16.92;;
2544;SDS011;36212;48.838;9.142;2024-03-02T05:11:15;18.75;;;15.80;;
2544;SDS011;36212;48.838;9.142;2024-03-02T05:14:23;21.40;;;17.25;;
2544;SDS011;36212;48.838;9.142;2024-03-02T05:16:56;19.88;;;16.27;;
2544;SDS011;36212;48.838;9.142;2024-03-02T05:19:29;25.92;;;19.48;;
2544;SDS011;36212;48.838;9.142;2024-03-02T05:22:01;22.80;;;19.65;;
2544;SDS011;36212;48.838;9.142;2024-03-02T05:24:35;24.38;;;19.23;;
2544;SDS011;36212;48.838;9.142;2024-03-02T05:27:08;21.17;;;18.90;;
2544;SDS011;36212;48.838;9.142;2024-03-02T05:29:41;22.60;;;17.60;;
2544;SDS011;36212;48.838;9.142;2024-03-02T05:32:13;21.30;;;19.00;;
2544;SDS011;36212;48.838;9.142;2024-03-02T05:34:46;22.48;;;18.50;;
2544;SDS011;36212;48.838;9.142;2024-03-02T05:37:21;21.70;;;18.23;;
2544;SDS011;36212;48.838;9.142;2024-03-02T05:39:54;23.10;;;17.95;;
2544;SDS011;36212;48.838;9.142;2024-03-02T05:42:27;17.95;;;15.75;;
2544;SDS011;36212;48.838;9.142;2024-03-02T05:45:00;22.23;;;17.50;;
2544;SDS011;36212;48.838;9.142;2024-03-02T05:47:33;19.00;;;16.95;;
2544;SDS011;36212;48.838;9.142;2024-03-02T05:50:06;20.65;;;17.55;;
2544;SDS011;36212;48.838;9.142;2024-03-02T05:52:39;18.30;;;16.40;;
2544;SDS011;36212;48.838;9.142;2024-03-02T05:55:12;20.00;;;17.25;;
2544;SDS011;36212;48.838;9.142;2024-03-02T05:57:45;20.58;;;15.45;;
2544;SDS011;36212;48.838;9.142;2024-03-02T06:00:55;21.50;;;16.85;;
2544;SDS011;36212;48.838;9.142;2024-03-02T06:03:28;17.60;;;15.35;;
2544;SDS011;36212;48.838;9.142;2024-03-02T06:06:01;20.15;;;17.70;;
2544;SDS011;36212;48.838;9.142;2024-03-02T06:08:34;22.98;;;17.17;;
2544;SDS011;36212;48.838;9.142;2024-03-02T06:11:07;21.90;;;17.45;;
2544;SDS011;36212;48.838;9.142;2024-03-02T06:13:39;19.35;;;17.25;;
2544;SDS011;36212;48.838;9.142;2024-03-02T06:16:12;18.45;;;16.20;;
2544;SDS011;36212;48.838;9.142;2024-03-02T06:18:45;21.75;;;15.85;;
2544;SDS011;36212;48.838;9.142;2024-03-02T06:21:20;21.35;;;15.80;;
2544;SDS011;36212;48.838;9.142;2024-03-02T06:23:53;20.58;;;17.88;;
2544;SDS011;36212;48.838;9.142;2024-03-02T06:26:26;21.90;;;16.55;;
2544;SDS011;36212;48.838;9.142;2024-03-02T06:29:01;25.13;;;18.17;;
2544;SDS011;36212;48.838;9.142;2024-03-02T06:31:34;24.75;;;19.40;;
2544;SDS011;36212;48.838;9.142;2024-03-02T06:34:07;24.10;;;18.02;;
2544;SDS011;36212;48.838;9.142;2024-03-02T06:36:40;24.00;;;18.80;;
2544;SDS011;36212;48.838;9.142;2024-03-02T06:39:14;26.05;;;20.23;;
2544;SDS011;36212;48.838;9.142;2024-03-02T06:41:47;24.33;;;21.20;;
2544;SDS011;36212;48.838;9.142;2024-03-02T06:44:19;24.90;;;20.08;;
2544;SDS011;36212;48.838;9.142;2024-03-02T06:46:53;23.92;;;19.95;;
2544;SDS011;36212;48.838;9.142;2024-03-02T06:49:25;23.17;;;19.50;;
2544;SDS011;36212;48.838;9.142;2024-03-02T06:51:58;25.17;;;20.90;;
2544;SDS011;36212;48.838;9.142;2024-03-02T06:54:30;21.75;;;17.98;;
2544;SDS011;36212;48.838;9.142;2024-03-02T06:57:04;22.58;;;19.50;;
2544;SDS011;36212;48.838;9.142;2024-03-02T06:59:37;25.20;;;20.20;;
2544;SDS011;36212;48.838;9.142;2024-03-02T07:02:10;22.73;;;18.83;;
2544;SDS011;36212;48.838;9.142;2024-03-02T07:04:43;20.55;;;17.65;;
2544;SDS011;36212;48.838;9.142;2024-03-02T07:07:16;23.27;;;19.15;;
2544;SDS011;36212;48.838;9.142;2024-03-02T07:09:49;23.25;;;18.60;;
2544;SDS011;36212;48.838;9.142;2024-03-02T07:12:22;25.67;;;19.75;;
2544;SDS011;36212;48.838;9.142;2024-03-02T07:14:55;19.75;;;17.77;;
2544;SDS011;36212;48.838;9.142;2024-03-02T07:17:51;17.58;;;15.77;;
2544;SDS011;36212;48.838;9.142;2024-03-02T07:20:25;15.35;;;13.55;;
2544;SDS011;36212;48.838;9.142;2024-03-02T07:22:58;16.77;;;14.98;;
2544;SDS011;36212;48.838;9.142;2024-03-02T07:25:30;16.90;;;13.93;;
2544;SDS011;36212;48.838;9.142;2024-03-02T07:28:06;14.68;;;13.07;;
2544;SDS011;36212;48.838;9.142;2024-03-02T07:30:41;15.55;;;13.95;;
2544;SDS011;36212;48.838;9.142;2024-03-02T07:33:14;13.68;;;12.30;;
2544;SDS011;36212;48.838;9.142;2024-03-02T07:35:48;15.07;;;13.68;;
2544;SDS011;36212;48.838;9.142;2024-03-02T07:38:21;14.43;;;13.13;;
2544;SDS011;36212;48.838;9.142;2024-03-02T07:40:53;14.63;;;13.10;;
2544;SDS011;36212;48.838;9.142;2024-03-02T07:43:27;14.65;;;13.18;;
2544;SDS011;36212;48.838;9.142;2024-03-02T07:46:00;14.52;;;13.05;;
2544;SDS011;36212;48.838;9.142;2024-03-02T07:48:33;15.75;;;13.02;;
2544;SDS011;36212;48.838;9.142;2024-03-02T07:51:06;15.32;;;13.73;;
2544;SDS011;36212;48.838;9.142;2024-03-02T07:53:38;14.43;;;13.02;;
2544;SDS011;36212;48.838;9.142;2024-03-02T07:56:10;17.00;;;14.63;;
2544;SDS011;36212;48.838;9.142;2024-03-02T07:58:42;14.93;;;13.52;;
2544;SDS011;36212;48.838;9.142;2024-03-02T08:01:19;15.77;;;14.05;;
2544;SDS011;36212;48.838;9.142;2024-03-02T08:03:51;15.20;;;13.68;;
2544;SDS011;36212;48.838;9.142;2024-03-02T08:06:28;15.63;;;13.93;;
2544;SDS011;36212;48.838;9.142;2024-03-02T08:09:02;15.43;;;13.93;;
2544;SDS011;36212;48.838;9.142;2024-03-02T08:11:41;15.10;;;13.68;;
2544;SDS011;36212;48.838;9.142;2024-03-02T08:14:13;15.82;;;13.32;;
2544;SDS011;36212;48.838;9.142;2024-03-02T08:16:46;16.42;;;14.60;;
2544;SDS011;36212;48.838;9.142;2024-03-02T08:19:18;16.73;;;13.40;;
2544;SDS011;36212;48.838;9.142;2024-03-02T08:21:50;15.10;;;13.50;;
2544;SDS011;36212;48.838;9.142;2024-03-02T08:24:23;14.65;;;13.15;;
2544;SDS011;36212;48.838;9.142;2024-03-02T08:26:56;14.65;;;13.15;;
2544;SDS011;36212;48.838;9.142;2024-03-02T08:29:29;14.00;;;12.65;;
2544;SDS011;36212;48.838;9.142;2024-03-02T08:32:03;13.75;;;12.35;;
2544;SDS011;36212;48.838;9.142;2024-03-02T08:34:36;13.98;;;12.57;;
2544;SDS011;36212;48.838;9.142;2024-03-02T08:37:09;13.38;;;12.07;;
2544;SDS011;36212;48.838;9.142;2024-03-02T08:39:41;13.43;;;12.02;;
2544;SDS011;36212;48.838;9.142;2024-03-02T08:42:15;13.25;;;11.95;;
2544;SDS011;36212;48.838;9.142;2024-03-02T08:44:48;11.98;;;10.82;;
2544;SDS011;36212;48.838;9.142;2024-03-02T08:47:21;12.32;;;11.13;;
2544;SDS011;36212;48.838;9.142;2024-03-02T08:49:54;12.32;;;11.10;;
2544;SDS011;36212;48.838;9.142;2024-03-02T08:52:30;12.10;;;11.00;;
2544;SDS011;36212;48.838;9.142;2024-03-02T08:55:03;11.55;;;10.20;;
2544;SDS011;36212;48.838;9.142;2024-03-02T08:57:37;11.70;;;10.55;;
2544;SDS011;36212;48.838;9.142;2024-03-02T09:00:10;11.63;;;10.43;;
2544;SDS011;36212;48.838;9.142;2024-03-02T09:02:44;11.75;;;10.60;;
2544;SDS011;36212;48.838;9.142;2024-03-02T09:05:18;10.70;;;9.60;;
2544;SDS011;36212;48.838;9.142;2024-03-02T09:07:51;11.80;;;10.80;;
2544;SDS011;36212;48.838;9.142;2024-03-02T09:10:24;11.98;;;9.80;;
2544;SDS011;36212;48.838;9.142;2024-03-02T09:12:59;10.55;;;9.55;;
2544;SDS011;36212;48.838;9.142;2024-03-02T09:15:32;10.55;;;9.60;;
2544;SDS011;36212;48.838;9.142;2024-03-02T09:18:10;9.85;;;9.05;;
2544;SDS011;36212;48.838;9.142;2024-03-02T09:20:42;10.18;;;9.18;;
2544;SDS011;36212;48.838;9.142;2024-03-02T09:23:16;10.23;;;9.23;;
2544;SDS011;36212;48.838;9.142;2024-03-02T09:25:50;11.13;;;10.20;;
2544;SDS011;36212;48.838;9.142;2024-03-02T09:28:24;9.65;;;8.75;;
2544;SDS011;36212;48.838;9.142;2024-03-02T09:30:58;10.55;;;9.55;;
2544;SDS011;36212;48.838;9.142;2024-03-02T09:37:12;9.32;;;8.50;;
2544;SDS011;36212;48.838;9.142;2024-03-02T09:39:45;9.10;;;8.40;;
2544;SDS011;36212;48.838;9.142;2024-03-02T09:42:18;9.00;;;8.30;;
2544;SDS011;36212;48.838;9.142;2024-03-02T09:44:53;7.88;;;7.28;;
2544;SDS011;36212;48.838;9.142;2024-03-02T09:47:34;11.55;;;8.40;;
2544;SDS011;36212;48.838;9.142;2024-03-02T09:50:23;8.38;;;7.68;;
2544;SDS011;36212;48.838;9.142;2024-03-02T09:52:56;8.15;;;7.43;;
2544;SDS011;36212;48.838;9.142;2024-03-02T09:55:29;7.30;;;6.70;;
2544;SDS011;36212;48.838;9.142;2024-03-02T09:58:02;8.35;;;7.55;;
2544;SDS011;36212;48.838;9.142;2024-03-02T10:00:35;6.80;;;6.30;;
2544;SDS011;36212;48.838;9.142;2024-03-02T10:03:12;6.85;;;6.25;;
2544;SDS011;36212;48.838;9.142;2024-03-02T10:05:45;8.15;;;7.47;;
2544;SDS011;36212;48.838;9.142;2024-03-02T10:08:18;7.32;;;6.72;;
2544;SDS011;36212;48.838;9.142;2024-03-02T10:10:50;8.45;;;7.75;;
2544;SDS011;36212;48.838;9.142;2024-03-02T10:13:23;8.23;;;7.53;;
2544;SDS011;36212;48.838;9.142;2024-03-02T10:15:56;8.05;;;7.30;;
2544;SDS011;36212;48.838;9.142;2024-03-02T10:18:44;8.10;;;7.50;;
2544;SDS011;36212;48.838;9.142;2024-03-02T10:21:16;7.32;;;6.82;;
2544;SDS011;36212;48.838;9.142;2024-03-02T10:23:49;8.00;;;7.38;;
2544;SDS011;36212;48.838;9.142;2024-03-02T10:26:22;7.30;;;6.80;;
2544;SDS011;36212;48.838;9.142;2024-03-02T10:28:55;8.85;;;6.93;;
2544;SDS011;36212;48.838;9.142;2024-03-02T10:31:32;7.60;;;6.90;;
2544;SDS011;36212;48.838;9.142;2024-03-02T10:34:09;7.03;;;5.85;;
2544;SDS011;36212;48.838;9.142;2024-03-02T10:36:43;6.30;;;5.80;;
2544;SDS011;36212;48.838;9.142;2024-03-02T10:39:19;9.18;;;6.57;;
2544;SDS011;36212;48.838;9.142;2024-03-02T10:41:55;6.47;;;5.88;;
2544;SDS011;36212;48.838;9.142;2024-03-02T10:44:28;7.10;;;6.03;;
2544;SDS011;36212;48.838;9.142;2024-03-02T10:47:04;7.10;;;6.50;;
2544;SDS011;36212;48.838;9.142;2024-03-02T10:49:38;7.30;;;6.70;;
2544;SDS011;36212;48.838;9.142;2024-03-02T10:52:14;6.60;;;6.07;;
2544;SDS011;36212;48.838;9.142;2024-03-02T10:54:47;6.82;;;6.32;;
2544;SDS011;36212;48.838;9.142;2024-03-02T10:57:21;6.82;;;6.22;;
2544;SDS011;36212;48.838;9.142;2024-03-02T11:00:02;6.95;;;6.35;;
2544;SDS011;36212;48.838;9.142;2024-03-02T11:02:36;7.50;;;6.78;;
2544;SDS011;36212;48.838;9.142;2024-03-02T11:05:19;6.80;;;6.30;;
2544;SDS011;36212;48.838;9.142;2024-03-02T11:08:22;6.38;;;5.85;;
2544;SDS011;36212;48.838;9.142;2024-03-02T11:10:58;6.50;;;6.00;;
2544;SDS011;36212;48.838;9.142;2024-03-02T11:13:37;6.53;;;5.93;;
2544;SDS011;36212;48.838;9.142;2024-03-02T11:19:11;4.80;;;4.50;;
2544;SDS011;36212;48.838;9.142;2024-03-02T11:21:49;5.72;;;5.32;;
2544;SDS011;36212;48.838;9.142;2024-03-02T11:26:59;5.53;;;5.22;;
2544;SDS011;36212;48.838;9.142;2024-03-02T11:34:52;5.65;;;5.25;;
2544;SDS011;36212;48.838;9.142;2024-03-02T11:37:24;4.55;;;4.25;;
2544;SDS011;36212;48.838;9.142;2024-03-02T11:39:57;4.47;;;4.28;;
2544;SDS011;36212;48.838;9.142;2024-03-02T11:42:30;5.13;;;4.72;;
2544;SDS011;36212;48.838;9.142;2024-03-02T11:45:04;4.35;;;4.00;;
2544;SDS011;36212;48.838;9.142;2024-03-02T11:47:40;3.85;;;3.65;;
2544;SDS011;36212;48.838;9.142;2024-03-02T11:50:30;4.05;;;3.80;;
2544;SDS011;36212;48.838;9.142;2024-03-02T11:53:11;4.32;;;4.03;;
2544;SDS011;36212;48.838;9.142;2024-03-02T11:55:45;3.67;;;3.47;;
2544;SDS011;36212;48.838;9.142;2024-03-02T11:58:20;3.50;;;3.30;;
2544;SDS011;36212;48.838;9.142;2024-03-02T12:00:57;3.80;;;3.60;;
2544;SDS011;36212;48.838;9.142;2024-03-02T12:03:30;3.03;;;2.92;;
2544;SDS011;36212;48.838;9.142;2024-03-02T12:06:07;3.10;;;2.90;;
2544;SDS011;36212;48.838;9.142;2024-03-02T12:08:41;2.80;;;2.70;;
2544;SDS011;36212;48.838;9.142;2024-03-02T12:11:16;2.75;;;2.35;;
2544;SDS011;36212;48.838;9.142;2024-03-02T12:13:53;2.67;;;2.43;;
2544;SDS011;36212;48.838;9.142;2024-03-02T12:16:30;3.20;;;3.00;;
2544;SDS011;36212;48.838;9.142;2024-03-02T12:19:03;2.60;;;2.50;;
2544;SDS011;36212;48.838;9.142;2024-03-02T12:21:36;2.70;;;2.60;;
2544;SDS011;36212;48.838;9.142;2024-03-02T12:24:10;2.40;;;2.30;;
2544;SDS011;36212;48.838;9.142;2024-03-02T12:26:42;2.80;;;2.70;;
2544;SDS011;36212;48.838;9.142;2024-03-02T12:29:20;3.03;;;2.83;;
2544;SDS011;36212;48.838;9.142;2024-03-02T12:31:54;2.80;;;2.60;;
2544;SDS011;36212;48.838;9.142;2024-03-02T12:34:27;3.17;;;3.00;;
2544;SDS011;36212;48.838;9.142;2024-03-02T12:36:59;2.90;;;2.80;;
2544;SDS011;36212;48.838;9.142;2024-03-02T12:39:32;3.33;;;2.83;;
2544;SDS011;36212;48.838;9.142;2024-03-02T12:42:05;3.00;;;2.80;;
2544;SDS011;36212;48.838;9.142;2024-03-02T12:44:39;2.70;;;2.57;;
2544;SDS011;36212;48.838;9.142;2024-03-02T12:47:11;3.13;;;3.03;;
2544;SDS011;36212;48.838;9.142;2024-03-02T12:49:45;2.80;;;2.70;;
2544;SDS011;36212;48.838;9.142;2024-03-02T12:52:18;2.53;;;2.43;;
2544;SDS011;36212;48.838;9.142;2024-03-02T12:54:52;2.80;;;2.70;;
2544;SDS011;36212;48.838;9.142;2024-03-02T12:57:32;2.40;;;2.30;;
2544;SDS011;36212;48.838;9.142;2024-03-02T13:00:05;2.80;;;2.70;;
2544;SDS011;36212;48.838;9.142;2024-03-02T13:02:42;2.53;;;2.40;;
2544;SDS011;36212;48.838;9.142;2024-03-02T13:05:15;3.00;;;2.80;;
2544;SDS011;36212;48.838;9.142;2024-03-02T13:07:49;2.90;;;2.63;;
2544;SDS011;36212;48.838;9.142;2024-03-02T13:10:22;2.80;;;2.70;;
2544;SDS011;36212;48.838;9.142;2024-03-02T13:12:55;3.00;;;2.80;;
2544;SDS011;36212;48.838;9.142;2024-03-02T13:15:28;3.20;;;3.00;;
2544;SDS011;36212;48.838;9.142;2024-03-02T13:18:03;2.63;;;2.53;;
2544;SDS011;36212;48.838;9.142;2024-03-02T13:20:37;2.80;;;2.70;;
2544;SDS011;36212;48.838;9.142;2024-03-02T13:23:10;2.80;;;2.70;;
2544;SDS011;36212;48.838;9.142;2024-03-02T13:25:43;2.70;;;2.60;;
2544;SDS011;36212;48.838;9.142;2024-03-02T13:28:17;3.20;;;3.10;;
2544;SDS011;36212;48.838;9.142;2024-03-02T13:30:50;3.00;;;2.80;;
2544;SDS011;36212;48.838;9.142;2024-03-02T13:33:22;2.80;;;2.70;;
2544;SDS011;36212;48.838;9.142;2024-03-02T13:35:54;2.70;;;2.60;;
2544;SDS011;36212;48.838;9.142;2024-03-02T13:38:26;3.00;;;2.90;;
2544;SDS011;36212;48.838;9.142;2024-03-02T13:40:59;3.00;;;2.90;;
2544;SDS011;36212;48.838;9.142;2024-03-02T13:43:33;2.90;;;2.80;;
2544;SDS011;36212;48.838;9.142;2024-03-02T13:46:08;2.70;;;2.60;;
2544;SDS011;36212;48.838;9.142;2024-03-02T13:48:42;3.00;;;2.90;;
2544;SDS011;36212;48.838;9.142;2024-03-02T13:51:14;3.33;;;3.20;;
2544;SDS011;36212;48.838;9.142;2024-03-02T13:53:47;2.70;;;2.60;;
2544;SDS011;36212;48.838;9.142;2024-03-02T13:56:19;3.13;;;3.03;;
2544;SDS011;36212;48.838;9.142;2024-03-02T13:58:52;2.80;;;2.60;;
2544;SDS011;36212;48.838;9.142;2024-03-02T14:01:25;2.80;;;2.70;;
2544;SDS011;36212;48.838;9.142;2024-03-02T14:03:57;2.80;;;2.70;;
2544;SDS011;36212;48.838;9.142;2024-03-02T14:06:31;3.20;;;3.10;;
2544;SDS011;36212;48.838;9.142;2024-03-02T14:09:04;3.07;;;2.97;;
2544;SDS011;36212;48.838;9.142;2024-03-02T14:11:37;2.70;;;2.60;;
2544;SDS011;36212;48.838;9.142;2024-03-02T14:14:09;3.37;;;3.17;;
2544;SDS011;36212;48.838;9.142;2024-03-02T14:16:41;2.90;;;2.80;;
2544;SDS011;36212;48.838;9.142;2024-03-02T14:19:14;2.90;;;2.80;;
2544;SDS011;36212;48.838;9.142;2024-03-02T14:21:47;2.73;;;2.63;;
2544;SDS011;36212;48.838;9.142;2024-03-02T14:24:20;3.10;;;3.00;;
2544;SDS011;36212;48.838;9.142;2024-03-02T14:26:56;3.13;;;2.93;;
2544;SDS011;36212;48.838;9.142;2024-03-02T14:29:51;3.27;;;3.13;;
2544;SDS011;36212;48.838;9.142;2024-03-02T14:32:23;3.40;;;3.30;;
2544;SDS011;36212;48.838;9.142;2024-03-02T14:34:56;3.07;;;2.97;;
2544;SDS011;36212;48.838;9.142;2024-03-02T14:37:29;2.70;;;2.60;;
2544;SDS011;36212;48.838;9.142;2024-03-02T14:40:01;3.10;;;3.00;;
2544;SDS011;36212;48.838;9.142;2024-03-02T14:42:37;3.50;;;3.30;;
2544;SDS011;36212;48.838;9.142;2024-03-02T14:45:09;3.33;;;3.23;;
2544;SDS011;36212;48.838;9.142;2024-03-02T14:47:42;3.17;;;2.97;;
2544;SDS011;36212;48.838;9.142;2024-03-02T14:50:14;3.30;;;3.10;;
2544;SDS011;36212;48.838;9.142;2024-03-02T14:52:48;2.90;;;2.80;;
2544;SDS011;36212;48.838;9.142;2024-03-02T14:55:21;2.73;;;2.63;;
2544;SDS011;36212;48.838;9.142;2024-03-02T14:57:53;3.50;;;3.30;;
2544;SDS011;36212;48.838;9.142;2024-03-02T15:00:26;3.47;;;3.37;;
2544;SDS011;36212;48.838;9.142;2024-03-02T15:02:59;13.50;;;4.43;;
2544;SDS011;36212;48.838;9.142;2024-03-02T15:05:37;3.63;;;3.43;;
2544;SDS011;36212;48.838;9.142;2024-03-02T15:08:10;3.47;;;3.27;;
2544;SDS011;36212;48.838;9.142;2024-03-02T15:10:43;3.53;;;3.43;;
2544;SDS011;36212;48.838;9.142;2024-03-02T15:13:16;3.53;;;3.37;;
2544;SDS011;36212;48.838;9.142;2024-03-02T15:15:49;3.30;;;3.03;;
2544;SDS011;36212;48.838;9.142;2024-03-02T15:18:22;3.40;;;3.20;;
2544;SDS011;36212;48.838;9.142;2024-03-02T15:20:57;3.43;;;3.30;;
2544;SDS011;36212;48.838;9.142;2024-03-02T15:23:29;3.50;;;3.30;;
2544;SDS011;36212;48.838;9.142;2024-03-02T15:26:02;3.70;;;3.60;;
2544;SDS011;36212;48.838;9.142;2024-03-02T15:28:34;4.17;;;3.90;;
2544;SDS011;36212;48.838;9.142;2024-03-02T15:31:07;4.40;;;4.10;;
2544;SDS011;36212;48.838;9.142;2024-03-02T15:33:40;4.53;;;4.33;;
2544;SDS011;36212;48.838;9.142;2024-03-02T15:36:16;4.37;;;4.07;;
2544;SDS011;36212;48.838;9.142;2024-03-02T15:38:53;4.43;;;4.23;;
2544;SDS011;36212;48.838;9.142;2024-03-02T15:41:30;4.30;;;4.00;;